sensor_id;sensor_type;location;lat;lon;timestamp;noise_LAeq;noise_LA_min;noise_LA_max;noise_LA01;noise_LA95
42701;Laerm;28316;49.504;8.526;2023-10-31T00:01:54;40.37;38.95;41.53;;
42701;Laerm;28316;49.504;8.526;2023-10-31T00:04:20;40.50;39.21;41.61;;
42701;Laerm;28316;49.504;8.526;2023-10-31T00:06:46;40.59;39.08;41.75;;
42701;Laerm;28316;49.504;8.526;2023-10-31T00:09:12;40.69;39.34;41.75;;
42701;Laerm;28316;49.504;8.526;2023-10-31T00:11:38;40.48;39.08;41.53;;
42701;Laerm;28316;49.504;8.526;2023-10-31T00:14:04;40.45;39.08;41.53;;
42701;Laerm;28316;49.504;8.526;2023-10-31T00:16:29;40.40;39.08;41.53;;
42701;Laerm;28316;49.504;8.526;2023-10-31T00:18:55;40.36;38.95;41.53;;
42701;Laerm;28316;49.504;8.526;2023-10-31T00:21:21;40.33;38.95;41.46;;
42701;Laerm;28316;49.504;8.526;2023-10-31T00:23:48;40.32;38.81;41.38;;
42701;Laerm;28316;49.504;8.526;2023-10-31T00:26:15;40.31;38.81;41.53;;
42701;Laerm;28316;49.504;8.526;2023-10-31T00:28:41;40.34;38.81;41.46;;
42701;Laerm;28316;49.504;8.526;2023-10-31T00:31:07;40.36;38.67;41.53;;
42701;Laerm;28316;49.504;8.526;2023-10-31T00:33:34;40.32;38.95;41.68;;
42701;Laerm;28316;49.504;8.526;2023-10-31T00:36:01;40.23;38.52;41.46;;
42701;Laerm;28316;49.504;8.526;2023-10-31T00:38:27;39.93;37.88;41.22;;
42701;Laerm;28316;49.504;8.526;2023-10-31T00:40:56;39.40;37.52;40.98;;
42701;Laerm;28316;49.504;8.526;2023-10-31T00:43:22;38.85;34.69;40.33;;
42701;Laerm;28316;49.504;8.526;2023-10-31T00:45:47;38.68;36.20;40.23;;
42701;Laerm;28316;49.504;8.526;2023-10-31T00:48:13;38.41;33.90;40.13;;
42701;Laerm;28316;49.504;8.526;2023-10-31T00:50:39;38.29;32.93;40.03;;
42701;Laerm;28316;49.504;8.526;2023-10-31T00:53:05;38.65;34.69;40.43;;
42701;Laerm;28316;49.504;8.526;2023-10-31T00:55:30;38.44;30.89;40.62;;
42701;Laerm;28316;49.504;8.526;2023-10-31T00:57:56;37.30;26.91;39.58;;
42701;Laerm;28316;49.504;8.526;2023-10-31T01:00:22;37.00;28.67;39.92;;
42701;Laerm;28316;49.504;8.526;2023-10-31T01:02:48;36.81;5.00;39.46;;
42701;Laerm;28316;49.504;8.526;2023-10-31T01:05:13;36.72;23.90;39.81;;
42701;Laerm;28316;49.504;8.526;2023-10-31T01:07:39;36.56;28.67;39.92;;
42701;Laerm;28316;49.504;8.526;2023-10-31T01:10:05;36.48;28.67;39.21;;
42701;Laerm;28316;49.504;8.526;2023-10-31T01:12:31;36.47;26.91;39.21;;
42701;Laerm;28316;49.504;8.526;2023-10-31T01:15:01;36.42;28.67;39.08;;
42701;Laerm;28316;49.504;8.526;2023-10-31T01:17:26;36.42;26.91;39.34;;
42701;Laerm;28316;49.504;8.526;2023-10-31T01:19:52;36.46;28.67;39.08;;
42701;Laerm;28316;49.504;8.526;2023-10-31T01:22:20;36.48;28.67;41.82;;
42701;Laerm;28316;49.504;8.526;2023-10-31T01:24:46;36.49;30.89;39.92;;
42701;Laerm;28316;49.504;8.526;2023-10-31T01:27:11;36.50;31.68;39.21;;
42701;Laerm;28316;49.504;8.526;2023-10-31T01:29:37;36.55;28.67;39.34;;
42701;Laerm;28316;49.504;8.526;2023-10-31T01:32:03;36.58;31.68;41.46;;
42701;Laerm;28316;49.504;8.526;2023-10-31T01:34:29;36.74;31.68;39.70;;
42701;Laerm;28316;49.504;8.526;2023-10-31T01:36:55;36.94;32.35;41.46;;
42701;Laerm;28316;49.504;8.526;2023-10-31T01:39:20;37.24;34.31;39.92;;
42701;Laerm;28316;49.504;8.526;2023-10-31T01:41:46;37.53;33.90;39.81;;
42701;Laerm;28316;49.504;8.526;2023-10-31T01:44:12;37.73;35.04;39.89;;
42701;Laerm;28316;49.504;8.526;2023-10-31T01:46:37;37.90;34.69;40.23;;
42701;Laerm;28316;49.504;8.526;2023-10-31T01:49:06;38.01;34.69;40.13;;
42701;Laerm;28316;49.504;8.526;2023-10-31T01:51:32;38.01;35.36;40.13;;
42701;Laerm;28316;49.504;8.526;2023-10-31T01:53:58;37.94;34.69;40.13;;
42701;Laerm;28316;49.504;8.526;2023-10-31T01:56:24;38.04;35.59;40.33;;
42701;Laerm;28316;49.504;8.526;2023-10-31T01:58:51;38.03;35.04;40.13;;
42701;Laerm;28316;49.504;8.526;2023-10-31T02:01:18;37.96;35.36;40.33;;
42701;Laerm;28316;49.504;8.526;2023-10-31T02:03:44;38.07;35.66;40.43;;
42701;Laerm;28316;49.504;8.526;2023-10-31T02:06:10;38.18;35.36;40.62;;
42701;Laerm;28316;49.504;8.526;2023-10-31T02:08:36;38.19;35.66;40.43;;
42701;Laerm;28316;49.504;8.526;2023-10-31T02:11:02;38.15;35.04;40.23;;
42701;Laerm;28316;49.504;8.526;2023-10-31T02:13:29;38.11;35.36;40.13;;
42701;Laerm;28316;49.504;8.526;2023-10-31T02:15:55;37.97;35.36;40.23;;
42701;Laerm;28316;49.504;8.526;2023-10-31T02:18:21;37.96;35.04;40.62;;
42701;Laerm;28316;49.504;8.526;2023-10-31T02:20:47;37.97;35.36;40.62;;
42701;Laerm;28316;49.504;8.526;2023-10-31T02:23:15;38.06;35.04;40.33;;
42701;Laerm;28316;49.504;8.526;2023-10-31T02:25:41;38.06;34.69;40.53;;
42701;Laerm;28316;49.504;8.526;2023-10-31T02:28:07;38.02;35.66;40.03;;
42701;Laerm;28316;49.504;8.526;2023-10-31T02:30:34;37.91;34.69;40.13;;
42701;Laerm;28316;49.504;8.526;2023-10-31T02:33:03;37.77;35.04;40.23;;
42701;Laerm;28316;49.504;8.526;2023-10-31T02:35:29;37.64;34.69;40.13;;
42701;Laerm;28316;49.504;8.526;2023-10-31T02:37:55;37.56;34.69;40.03;;
42701;Laerm;28316;49.504;8.526;2023-10-31T02:40:20;37.51;34.31;39.92;;
42701;Laerm;28316;49.504;8.526;2023-10-31T02:42:46;37.49;34.69;40.13;;
42701;Laerm;28316;49.504;8.526;2023-10-31T02:45:12;37.50;34.31;39.92;;
42701;Laerm;28316;49.504;8.526;2023-10-31T02:47:38;37.55;34.69;39.81;;
42701;Laerm;28316;49.504;8.526;2023-10-31T02:50:04;37.65;35.04;40.03;;
42701;Laerm;28316;49.504;8.526;2023-10-31T02:52:31;37.79;35.36;40.13;;
42701;Laerm;28316;49.504;8.526;2023-10-31T02:54:56;37.88;35.04;40.13;;
42701;Laerm;28316;49.504;8.526;2023-10-31T02:57:22;37.93;35.36;40.27;;
42701;Laerm;28316;49.504;8.526;2023-10-31T02:59:48;38.02;35.36;40.71;;
42701;Laerm;28316;49.504;8.526;2023-10-31T03:02:13;38.12;35.36;40.43;;
42701;Laerm;28316;49.504;8.526;2023-10-31T03:04:39;38.13;35.66;40.23;;
42701;Laerm;28316;49.504;8.526;2023-10-31T03:07:05;38.13;35.01;40.23;;
42701;Laerm;28316;49.504;8.526;2023-10-31T03:09:31;38.17;35.66;40.33;;
42701;Laerm;28316;49.504;8.526;2023-10-31T03:11:56;38.20;35.36;40.43;;
42701;Laerm;28316;49.504;8.526;2023-10-31T03:14:22;38.16;35.36;40.23;;
42701;Laerm;28316;49.504;8.526;2023-10-31T03:16:48;38.03;35.04;40.13;;
42701;Laerm;28316;49.504;8.526;2023-10-31T03:19:14;37.99;35.36;40.43;;
42701;Laerm;28316;49.504;8.526;2023-10-31T03:21:39;37.91;33.90;40.23;;
42701;Laerm;28316;49.504;8.526;2023-10-31T03:24:05;37.88;34.69;40.33;;
42701;Laerm;28316;49.504;8.526;2023-10-31T03:26:31;37.87;35.04;40.13;;
42701;Laerm;28316;49.504;8.526;2023-10-31T03:28:57;37.88;34.31;40.23;;
42701;Laerm;28316;49.504;8.526;2023-10-31T03:31:23;37.96;34.69;40.13;;
42701;Laerm;28316;49.504;8.526;2023-10-31T03:33:50;38.00;35.04;40.13;;
42701;Laerm;28316;49.504;8.526;2023-10-31T03:36:17;38.11;35.36;40.62;;
42701;Laerm;28316;49.504;8.526;2023-10-31T03:38:43;38.15;35.66;40.23;;
42701;Laerm;28316;49.504;8.526;2023-10-31T03:41:09;38.18;35.66;40.53;;
42701;Laerm;28316;49.504;8.526;2023-10-31T03:43:34;38.14;35.66;40.43;;
42701;Laerm;28316;49.504;8.526;2023-10-31T03:46:00;38.11;35.04;40.23;;
42701;Laerm;28316;49.504;8.526;2023-10-31T03:48:26;38.15;35.36;40.23;;
42701;Laerm;28316;49.504;8.526;2023-10-31T03:50:52;38.26;35.66;40.53;;
42701;Laerm;28316;49.504;8.526;2023-10-31T03:53:18;38.32;35.66;40.23;;
42701;Laerm;28316;49.504;8.526;2023-10-31T03:55:44;38.37;35.66;40.36;;
42701;Laerm;28316;49.504;8.526;2023-10-31T03:58:10;38.36;35.36;40.33;;
42701;Laerm;28316;49.504;8.526;2023-10-31T04:00:36;38.37;35.66;40.53;;
42701;Laerm;28316;49.504;8.526;2023-10-31T04:03:02;38.30;35.36;40.23;;
42701;Laerm;28316;49.504;8.526;2023-10-31T04:05:28;38.26;35.86;40.62;;
42701;Laerm;28316;49.504;8.526;2023-10-31T04:07:53;38.31;35.66;40.62;;
42701;Laerm;28316;49.504;8.526;2023-10-31T04:10:20;38.37;34.69;40.33;;
42701;Laerm;28316;49.504;8.526;2023-10-31T04:12:49;38.44;35.36;40.53;;
42701;Laerm;28316;49.504;8.526;2023-10-31T04:15:14;38.46;35.66;40.27;;
42701;Laerm;28316;49.504;8.526;2023-10-31T04:17:40;38.53;36.10;40.80;;
42701;Laerm;28316;49.504;8.526;2023-10-31T04:20:07;38.54;35.94;40.80;;
42701;Laerm;28316;49.504;8.526;2023-10-31T04:22:33;38.58;35.66;40.62;;
42701;Laerm;28316;49.504;8.526;2023-10-31T04:24:59;38.63;36.20;40.53;;
42701;Laerm;28316;49.504;8.526;2023-10-31T04:27:24;38.64;36.45;40.98;;
42701;Laerm;28316;49.504;8.526;2023-10-31T04:29:50;38.64;35.94;40.53;;
42701;Laerm;28316;49.504;8.526;2023-10-31T04:32:16;38.62;35.94;40.53;;
42701;Laerm;28316;49.504;8.526;2023-10-31T04:34:41;38.63;35.94;40.80;;
42701;Laerm;28316;49.504;8.526;2023-10-31T04:37:07;38.67;36.45;40.98;;
42701;Laerm;28316;49.504;8.526;2023-10-31T04:39:33;38.68;36.20;40.89;;
42701;Laerm;28316;49.504;8.526;2023-10-31T04:42:02;38.64;36.45;40.80;;
42701;Laerm;28316;49.504;8.526;2023-10-31T04:44:28;38.71;36.20;40.80;;
42701;Laerm;28316;49.504;8.526;2023-10-31T04:46:53;38.70;36.20;40.62;;
42701;Laerm;28316;49.504;8.526;2023-10-31T04:49:19;38.74;36.20;40.80;;
42701;Laerm;28316;49.504;8.526;2023-10-31T04:51:46;38.70;36.20;40.53;;
42701;Laerm;28316;49.504;8.526;2023-10-31T04:54:11;38.65;36.34;40.80;;
42701;Laerm;28316;49.504;8.526;2023-10-31T04:56:40;38.65;36.20;41.22;;
42701;Laerm;28316;49.504;8.526;2023-10-31T04:59:06;38.60;35.94;40.71;;
42701;Laerm;28316;49.504;8.526;2023-10-31T05:01:31;38.61;36.20;40.71;;
42701;Laerm;28316;49.504;8.526;2023-10-31T05:03:57;38.48;35.66;40.80;;
42701;Laerm;28316;49.504;8.526;2023-10-31T05:06:23;38.40;35.66;40.43;;
42701;Laerm;28316;49.504;8.526;2023-10-31T05:08:49;38.35;35.94;40.23;;
42701;Laerm;28316;49.504;8.526;2023-10-31T05:11:18;38.38;35.66;40.33;;
42701;Laerm;28316;49.504;8.526;2023-10-31T05:13:45;38.36;35.94;40.53;;
42701;Laerm;28316;49.504;8.526;2023-10-31T05:16:11;38.49;36.45;40.62;;
42701;Laerm;28316;49.504;8.526;2023-10-31T05:18:39;38.54;35.94;40.53;;
42701;Laerm;28316;49.504;8.526;2023-10-31T05:21:05;38.68;36.45;40.80;;
42701;Laerm;28316;49.504;8.526;2023-10-31T05:23:31;38.69;36.20;40.62;;
42701;Laerm;28316;49.504;8.526;2023-10-31T05:25:57;38.72;36.20;40.62;;
42701;Laerm;28316;49.504;8.526;2023-10-31T05:28:23;38.80;36.45;40.89;;
42701;Laerm;28316;49.504;8.526;2023-10-31T05:30:49;38.82;36.45;40.71;;
42701;Laerm;28316;49.504;8.526;2023-10-31T05:33:18;38.90;36.45;40.62;;
42701;Laerm;28316;49.504;8.526;2023-10-31T05:35:44;38.97;36.69;40.89;;
42701;Laerm;28316;49.504;8.526;2023-10-31T05:38:09;39.03;36.91;40.89;;
42701;Laerm;28316;49.504;8.526;2023-10-31T05:40:35;38.99;36.69;40.98;;
42701;Laerm;28316;49.504;8.526;2023-10-31T05:43:02;38.98;36.69;40.80;;
42701;Laerm;28316;49.504;8.526;2023-10-31T05:45:30;38.89;36.69;40.71;;
42701;Laerm;28316;49.504;8.526;2023-10-31T05:47:56;38.90;36.69;40.80;;
42701;Laerm;28316;49.504;8.526;2023-10-31T05:50:22;38.98;36.69;40.89;;
42701;Laerm;28316;49.504;8.526;2023-10-31T05:52:48;39.12;36.45;40.89;;
42701;Laerm;28316;49.504;8.526;2023-10-31T05:55:14;39.08;36.91;40.89;;
42701;Laerm;28316;49.504;8.526;2023-10-31T05:57:39;39.06;36.69;40.71;;
42701;Laerm;28316;49.504;8.526;2023-10-31T06:00:07;39.03;36.69;41.46;;
42701;Laerm;28316;49.504;8.526;2023-10-31T06:02:33;38.95;36.45;40.62;;
42701;Laerm;28316;49.504;8.526;2023-10-31T06:04:59;38.91;36.91;40.71;;
42701;Laerm;28316;49.504;8.526;2023-10-31T06:07:25;38.85;36.69;40.98;;
42701;Laerm;28316;49.504;8.526;2023-10-31T06:09:50;38.78;36.45;40.89;;
42701;Laerm;28316;49.504;8.526;2023-10-31T06:12:16;38.80;36.69;40.71;;
42701;Laerm;28316;49.504;8.526;2023-10-31T06:14:42;38.86;36.20;44.03;;
42701;Laerm;28316;49.504;8.526;2023-10-31T06:17:09;38.82;36.45;40.62;;
42701;Laerm;28316;49.504;8.526;2023-10-31T06:19:36;38.83;35.94;41.06;;
42701;Laerm;28316;49.504;8.526;2023-10-31T06:22:02;38.73;36.20;41.61;;
42701;Laerm;28316;49.504;8.526;2023-10-31T06:24:28;38.70;36.20;40.80;;
42701;Laerm;28316;49.504;8.526;2023-10-31T06:26:53;38.63;35.94;40.80;;
42701;Laerm;28316;49.504;8.526;2023-10-31T06:29:19;38.51;36.20;40.80;;
42701;Laerm;28316;49.504;8.526;2023-10-31T06:31:45;38.45;35.04;40.53;;
42701;Laerm;28316;49.504;8.526;2023-10-31T06:34:10;38.38;35.94;40.53;;
42701;Laerm;28316;49.504;8.526;2023-10-31T06:36:36;38.40;35.66;40.53;;
42701;Laerm;28316;49.504;8.526;2023-10-31T06:39:02;38.39;35.94;40.43;;
42701;Laerm;28316;49.504;8.526;2023-10-31T06:41:28;38.33;35.66;40.33;;
42701;Laerm;28316;49.504;8.526;2023-10-31T06:43:54;38.30;35.94;40.33;;
42701;Laerm;28316;49.504;8.526;2023-10-31T06:46:19;38.33;35.94;40.71;;
42701;Laerm;28316;49.504;8.526;2023-10-31T06:48:45;38.34;35.94;40.43;;
42701;Laerm;28316;49.504;8.526;2023-10-31T06:51:11;38.38;35.66;40.43;;
42701;Laerm;28316;49.504;8.526;2023-10-31T06:53:37;38.36;35.04;40.43;;
42701;Laerm;28316;49.504;8.526;2023-10-31T06:56:03;38.53;36.20;40.62;;
42701;Laerm;28316;49.504;8.526;2023-10-31T06:58:29;38.55;36.20;40.71;;
42701;Laerm;28316;49.504;8.526;2023-10-31T07:00:54;38.65;36.20;40.71;;
42701;Laerm;28316;49.504;8.526;2023-10-31T07:03:20;38.66;36.45;40.53;;
42701;Laerm;28316;49.504;8.526;2023-10-31T07:05:46;38.65;36.20;40.80;;
42701;Laerm;28316;49.504;8.526;2023-10-31T07:08:12;38.86;35.36;40.71;;
42701;Laerm;28316;49.504;8.526;2023-10-31T07:10:37;38.89;36.20;41.38;;
42701;Laerm;28316;49.504;8.526;2023-10-31T07:13:03;39.01;36.91;40.89;;
42701;Laerm;28316;49.504;8.526;2023-10-31T07:15:29;39.01;36.69;40.71;;
42701;Laerm;28316;49.504;8.526;2023-10-31T07:17:55;39.12;36.91;40.89;;
42701;Laerm;28316;49.504;8.526;2023-10-31T07:20:21;39.17;37.12;40.98;;
42701;Laerm;28316;49.504;8.526;2023-10-31T07:22:46;39.23;37.17;41.46;;
42701;Laerm;28316;49.504;8.526;2023-10-31T07:25:12;39.17;37.12;40.89;;
42701;Laerm;28316;49.504;8.526;2023-10-31T07:27:38;39.19;37.12;41.06;;
42701;Laerm;28316;49.504;8.526;2023-10-31T07:30:04;39.39;37.32;41.06;;
42701;Laerm;28316;49.504;8.526;2023-10-31T07:32:31;39.42;37.52;41.06;;
42701;Laerm;28316;49.504;8.526;2023-10-31T07:34:57;39.43;37.12;41.22;;
42701;Laerm;28316;49.504;8.526;2023-10-31T07:37:23;39.39;37.52;40.89;;
42701;Laerm;28316;49.504;8.526;2023-10-31T07:39:49;39.41;37.12;41.22;;
42701;Laerm;28316;49.504;8.526;2023-10-31T07:42:16;39.38;37.32;40.98;;
42701;Laerm;28316;49.504;8.526;2023-10-31T07:44:42;39.32;36.91;41.06;;
42701;Laerm;28316;49.504;8.526;2023-10-31T07:47:08;39.33;37.12;41.06;;
42701;Laerm;28316;49.504;8.526;2023-10-31T07:49:34;39.30;37.32;41.14;;
42701;Laerm;28316;49.504;8.526;2023-10-31T07:51:59;39.43;37.32;41.06;;
42701;Laerm;28316;49.504;8.526;2023-10-31T07:54:25;39.52;37.52;41.14;;
42701;Laerm;28316;49.504;8.526;2023-10-31T07:56:52;39.58;37.88;41.06;;
42701;Laerm;28316;49.504;8.526;2023-10-31T07:59:18;39.61;37.70;41.14;;
42701;Laerm;28316;49.504;8.526;2023-10-31T08:01:43;39.69;37.88;41.26;;
42701;Laerm;28316;49.504;8.526;2023-10-31T08:04:09;39.66;37.70;41.22;;
42701;Laerm;28316;49.504;8.526;2023-10-31T08:06:35;39.73;37.70;41.38;;
42701;Laerm;28316;49.504;8.526;2023-10-31T08:09:01;39.71;37.70;41.22;;
42701;Laerm;28316;49.504;8.526;2023-10-31T08:11:27;39.81;37.70;41.30;;
42701;Laerm;28316;49.504;8.526;2023-10-31T08:13:53;39.78;37.87;41.61;;
42701;Laerm;28316;49.504;8.526;2023-10-31T08:16:22;39.79;37.52;41.46;;
42701;Laerm;28316;49.504;8.526;2023-10-31T08:18:49;39.79;37.88;41.53;;
42701;Laerm;28316;49.504;8.526;2023-10-31T08:21:14;39.81;37.88;41.38;;
42701;Laerm;28316;49.504;8.526;2023-10-31T08:23:40;39.85;37.70;41.46;;
42701;Laerm;28316;49.504;8.526;2023-10-31T08:26:06;40.04;38.21;41.53;;
42701;Laerm;28316;49.504;8.526;2023-10-31T08:28:32;40.15;38.52;41.53;;
42701;Laerm;28316;49.504;8.526;2023-10-31T08:30:58;40.23;38.52;41.68;;
42701;Laerm;28316;49.504;8.526;2023-10-31T08:33:24;40.35;38.67;41.75;;
42701;Laerm;28316;49.504;8.526;2023-10-31T08:35:49;40.38;38.37;41.82;;
42701;Laerm;28316;49.504;8.526;2023-10-31T08:38:16;40.47;38.95;43.99;;
42701;Laerm;28316;49.504;8.526;2023-10-31T08:40:42;40.58;38.95;42.16;;
42701;Laerm;28316;49.504;8.526;2023-10-31T08:43:08;40.67;39.08;41.94;;
42701;Laerm;28316;49.504;8.526;2023-10-31T08:45:34;40.79;38.95;42.09;;
42701;Laerm;28316;49.504;8.526;2023-10-31T08:48:00;40.75;39.21;42.19;;
42701;Laerm;28316;49.504;8.526;2023-10-31T08:50:26;40.66;38.37;42.09;;
42701;Laerm;28316;49.504;8.526;2023-10-31T08:52:52;40.65;38.95;42.03;;
42701;Laerm;28316;49.504;8.526;2023-10-31T08:55:18;40.70;39.08;42.09;;
42701;Laerm;28316;49.504;8.526;2023-10-31T08:57:44;40.66;39.08;42.30;;
42701;Laerm;28316;49.504;8.526;2023-10-31T09:00:10;40.77;38.99;42.29;;
42701;Laerm;28316;49.504;8.526;2023-10-31T09:02:36;40.81;39.08;42.71;;
42701;Laerm;28316;49.504;8.526;2023-10-31T09:05:02;40.88;39.08;42.47;;
42701;Laerm;28316;49.504;8.526;2023-10-31T09:07:28;41.03;39.34;42.35;;
42701;Laerm;28316;49.504;8.526;2023-10-31T09:09:54;41.09;39.58;42.41;;
42701;Laerm;28316;49.504;8.526;2023-10-31T09:12:19;41.08;39.58;42.53;;
42701;Laerm;28316;49.504;8.526;2023-10-31T09:14:45;41.11;39.46;42.41;;
42701;Laerm;28316;49.504;8.526;2023-10-31T09:17:11;41.11;39.34;42.35;;
42701;Laerm;28316;49.504;8.526;2023-10-31T09:19:38;41.14;39.70;42.35;;
42701;Laerm;28316;49.504;8.526;2023-10-31T09:22:04;41.24;39.70;42.47;;
42701;Laerm;28316;49.504;8.526;2023-10-31T09:24:29;41.27;39.58;42.47;;
42701;Laerm;28316;49.504;8.526;2023-10-31T09:26:55;41.27;40.03;42.59;;
42701;Laerm;28316;49.504;8.526;2023-10-31T09:29:21;41.28;39.78;42.59;;
42701;Laerm;28316;49.504;8.526;2023-10-31T09:31:46;41.41;40.03;42.53;;
42701;Laerm;28316;49.504;8.526;2023-10-31T09:34:13;41.50;39.78;42.76;;
42701;Laerm;28316;49.504;8.526;2023-10-31T09:36:40;41.64;40.33;42.98;;
42701;Laerm;28316;49.504;8.526;2023-10-31T09:39:05;41.61;40.27;43.04;;
42701;Laerm;28316;49.504;8.526;2023-10-31T09:41:31;41.78;40.33;43.58;;
42701;Laerm;28316;49.504;8.526;2023-10-31T09:44:00;41.96;40.71;43.90;;
42701;Laerm;28316;49.504;8.526;2023-10-31T09:46:28;42.00;40.71;43.39;;
42701;Laerm;28316;49.504;8.526;2023-10-31T09:48:55;41.95;40.53;43.44;;
42701;Laerm;28316;49.504;8.526;2023-10-31T09:51:22;41.94;40.62;43.14;;
42701;Laerm;28316;49.504;8.526;2023-10-31T09:53:48;41.91;40.33;43.04;;
42701;Laerm;28316;49.504;8.526;2023-10-31T09:56:17;41.85;40.33;43.14;;
42701;Laerm;28316;49.504;8.526;2023-10-31T09:58:43;41.76;40.23;44.11;;
42701;Laerm;28316;49.504;8.526;2023-10-31T10:01:09;41.72;40.23;43.29;;
42701;Laerm;28316;49.504;8.526;2023-10-31T10:03:36;41.77;40.23;44.43;;
42701;Laerm;28316;49.504;8.526;2023-10-31T10:06:03;41.88;40.03;46.20;;
42701;Laerm;28316;49.504;8.526;2023-10-31T10:08:29;41.80;40.36;43.34;;
42701;Laerm;28316;49.504;8.526;2023-10-31T10:10:55;41.78;40.43;43.29;;
42701;Laerm;28316;49.504;8.526;2023-10-31T10:13:21;41.81;40.43;44.31;;
42701;Laerm;28316;49.504;8.526;2023-10-31T10:15:48;41.90;40.43;49.79;;
42701;Laerm;28316;49.504;8.526;2023-10-31T10:18:36;41.84;40.33;46.97;;
42701;Laerm;28316;49.504;8.526;2023-10-31T10:21:06;41.86;40.23;45.54;;
42701;Laerm;28316;49.504;8.526;2023-10-31T10:23:33;41.90;40.33;45.48;;
42701;Laerm;28316;49.504;8.526;2023-10-31T10:26:01;41.87;40.43;43.99;;
42701;Laerm;28316;49.504;8.526;2023-10-31T10:28:27;42.00;40.43;50.10;;
42701;Laerm;28316;49.504;8.526;2023-10-31T10:30:56;41.92;40.53;46.80;;
42701;Laerm;28316;49.504;8.526;2023-10-31T10:33:22;41.92;40.43;50.42;;
42701;Laerm;28316;49.504;8.526;2023-10-31T10:35:48;41.87;40.53;46.87;;
42701;Laerm;28316;49.504;8.526;2023-10-31T10:38:17;41.84;40.43;44.65;;
42701;Laerm;28316;49.504;8.526;2023-10-31T10:40:47;41.92;40.53;49.19;;
42701;Laerm;28316;49.504;8.526;2023-10-31T10:43:24;41.88;40.43;53.42;;
42701;Laerm;28316;49.504;8.526;2023-10-31T10:45:56;41.84;40.13;48.85;;
42701;Laerm;28316;49.504;8.526;2023-10-31T10:48:24;41.88;40.43;50.31;;
42701;Laerm;28316;49.504;8.526;2023-10-31T10:51:50;41.93;40.43;50.98;;
42701;Laerm;28316;49.504;8.526;2023-10-31T10:54:33;41.98;40.43;52.41;;
42701;Laerm;28316;49.504;8.526;2023-10-31T10:57:15;41.85;40.13;49.30;;
42701;Laerm;28316;49.504;8.526;2023-10-31T10:59:49;42.02;40.43;54.31;;
42701;Laerm;28316;49.504;8.526;2023-10-31T11:02:18;41.88;40.13;48.49;;
42701;Laerm;28316;49.504;8.526;2023-10-31T11:04:44;41.87;40.33;44.62;;
42701;Laerm;28316;49.504;8.526;2023-10-31T11:07:10;41.89;40.43;48.25;;
42701;Laerm;28316;49.504;8.526;2023-10-31T11:09:37;41.87;40.23;45.48;;
42701;Laerm;28316;49.504;8.526;2023-10-31T11:12:04;41.86;40.23;47.20;;
42701;Laerm;28316;49.504;8.526;2023-10-31T11:14:31;41.86;40.43;45.23;;
42701;Laerm;28316;49.504;8.526;2023-10-31T11:17:02;41.81;40.33;43.09;;
42701;Laerm;28316;49.504;8.526;2023-10-31T11:19:32;41.79;40.23;44.51;;
42701;Laerm;28316;49.504;8.526;2023-10-31T11:22:01;41.79;40.33;43.14;;
42701;Laerm;28316;49.504;8.526;2023-10-31T11:24:36;41.83;40.43;45.57;;
42701;Laerm;28316;49.504;8.526;2023-10-31T11:27:05;41.90;40.13;46.93;;
42701;Laerm;28316;49.504;8.526;2023-10-31T11:29:32;41.80;40.33;43.77;;
42701;Laerm;28316;49.504;8.526;2023-10-31T11:31:58;41.83;40.33;42.93;;
42701;Laerm;28316;49.504;8.526;2023-10-31T11:34:30;41.84;40.33;44.03;;
42701;Laerm;28316;49.504;8.526;2023-10-31T11:37:33;41.91;40.13;47.61;;
42701;Laerm;28316;49.504;8.526;2023-10-31T11:42:51;41.77;40.23;47.72;;
42701;Laerm;28316;49.504;8.526;2023-10-31T11:45:41;41.91;40.33;49.20;;
42701;Laerm;28316;49.504;8.526;2023-10-31T11:48:09;41.82;40.23;50.66;;
42701;Laerm;28316;49.504;8.526;2023-10-31T11:50:37;41.74;40.23;43.49;;
42701;Laerm;28316;49.504;8.526;2023-10-31T11:53:12;41.78;40.13;45.04;;
42701;Laerm;28316;49.504;8.526;2023-10-31T11:55:43;41.78;40.43;44.19;;
42701;Laerm;28316;49.504;8.526;2023-10-31T11:58:20;41.80;40.43;45.23;;
42701;Laerm;28316;49.504;8.526;2023-10-31T12:00:49;41.87;40.23;52.14;;
42701;Laerm;28316;49.504;8.526;2023-10-31T12:03:20;41.88;39.46;50.46;;
42701;Laerm;28316;49.504;8.526;2023-10-31T12:05:59;41.60;40.13;48.70;;
42701;Laerm;28316;49.504;8.526;2023-10-31T12:13:35;41.90;39.46;59.35;;
42701;Laerm;28316;49.504;8.526;2023-10-31T12:16:01;41.59;39.81;46.05;;
42701;Laerm;28316;49.504;8.526;2023-10-31T12:18:30;41.58;39.46;44.11;;
42701;Laerm;28316;49.504;8.526;2023-10-31T12:20:56;41.67;40.03;45.01;;
42701;Laerm;28316;49.504;8.526;2023-10-31T12:23:22;41.71;40.23;51.04;;
42701;Laerm;28316;49.504;8.526;2023-10-31T12:25:49;42.07;40.23;53.90;;
42701;Laerm;28316;49.504;8.526;2023-10-31T12:28:23;41.74;40.13;51.59;;
42701;Laerm;28316;49.504;8.526;2023-10-31T12:30:52;41.66;39.92;47.46;;
42701;Laerm;28316;49.504;8.526;2023-10-31T12:33:21;41.53;39.34;46.78;;
42701;Laerm;28316;49.504;8.526;2023-10-31T12:35:52;42.12;39.81;56.70;;
42701;Laerm;28316;49.504;8.526;2023-10-31T12:38:21;41.41;39.08;44.07;;
42701;Laerm;28316;49.504;8.526;2023-10-31T12:40:48;41.61;39.08;54.29;;
42701;Laerm;28316;49.504;8.526;2023-10-31T12:43:16;41.33;39.34;51.75;;
42701;Laerm;28316;49.504;8.526;2023-10-31T12:45:42;43.22;39.34;60.73;;
42701;Laerm;28316;49.504;8.526;2023-10-31T12:48:10;41.65;39.21;50.96;;
42701;Laerm;28316;49.504;8.526;2023-10-31T12:50:38;41.55;39.08;50.71;;
42701;Laerm;28316;49.504;8.526;2023-10-31T12:53:07;41.56;39.81;49.52;;
42701;Laerm;28316;49.504;8.526;2023-10-31T12:55:41;41.62;39.46;47.30;;
42701;Laerm;28316;49.504;8.526;2023-10-31T12:58:08;41.58;40.03;48.12;;
42701;Laerm;28316;49.504;8.526;2023-10-31T13:00:36;41.67;40.13;43.14;;
42701;Laerm;28316;49.504;8.526;2023-10-31T13:03:05;41.65;39.70;44.43;;
42701;Laerm;28316;49.504;8.526;2023-10-31T13:05:34;41.87;40.23;44.65;;
42701;Laerm;28316;49.504;8.526;2023-10-31T13:08:00;41.71;39.81;48.64;;
42701;Laerm;28316;49.504;8.526;2023-10-31T13:10:30;42.05;40.13;44.43;;
42701;Laerm;28316;49.504;8.526;2023-10-31T13:12:58;41.78;40.33;45.14;;
42701;Laerm;28316;49.504;8.526;2023-10-31T13:15:25;41.87;40.43;50.64;;
42701;Laerm;28316;49.504;8.526;2023-10-31T13:17:51;41.73;40.13;44.15;;
42701;Laerm;28316;49.504;8.526;2023-10-31T13:20:19;42.42;40.43;45.89;;
42701;Laerm;28316;49.504;8.526;2023-10-31T13:22:45;42.05;40.33;45.07;;
42701;Laerm;28316;49.504;8.526;2023-10-31T13:25:13;41.75;40.33;43.04;;
42701;Laerm;28316;49.504;8.526;2023-10-31T13:27:41;41.86;40.03;43.77;;
42701;Laerm;28316;49.504;8.526;2023-10-31T13:30:10;42.32;40.43;44.47;;
42701;Laerm;28316;49.504;8.526;2023-10-31T13:32:37;41.71;40.33;43.09;;
42701;Laerm;28316;49.504;8.526;2023-10-31T13:35:05;41.73;40.23;42.88;;
42701;Laerm;28316;49.504;8.526;2023-10-31T13:37:30;41.74;40.13;42.88;;
42701;Laerm;28316;49.504;8.526;2023-10-31T13:39:56;42.39;40.33;44.39;;
42701;Laerm;28316;49.504;8.526;2023-10-31T13:42:22;41.78;40.33;43.58;;
42701;Laerm;28316;49.504;8.526;2023-10-31T13:44:48;41.73;40.33;43.04;;
42701;Laerm;28316;49.504;8.526;2023-10-31T13:47:14;41.83;40.53;46.95;;
42701;Laerm;28316;49.504;8.526;2023-10-31T13:49:40;41.92;40.33;44.62;;
42701;Laerm;28316;49.504;8.526;2023-10-31T13:52:06;41.94;40.43;43.81;;